createdAt,value
2019-05-12T00:03:59.239Z,18.17
2019-05-12T00:06:30.179Z,16.60
2019-05-12T00:09:01.438Z,17.02
2019-05-12T00:11:32.312Z,16.35
2019-05-12T00:14:03.271Z,16.67
2019-05-12T00:16:34.700Z,16.40
2019-05-12T00:19:05.735Z,16.27
2019-05-12T00:21:37.696Z,15.68
2019-05-12T00:24:10.149Z,15.43
2019-05-12T00:29:12.278Z,16.80
2019-05-12T00:31:43.390Z,16.23
2019-05-12T00:34:14.055Z,17.17
2019-05-12T00:36:45.290Z,17.37
2019-05-12T00:39:19.144Z,17.45
2019-05-12T00:41:50.286Z,16.60
2019-05-12T00:44:21.403Z,17.57
2019-05-12T00:46:52.681Z,17.65
2019-05-12T00:49:24.168Z,16.80
2019-05-12T00:51:55.327Z,17.33
2019-05-12T00:54:28.444Z,15.58
2019-05-12T00:56:59.091Z,15.68
2019-05-12T00:59:30.053Z,16.73
2019-05-12T01:02:01.101Z,16.80
2019-05-12T01:04:32.454Z,18.55
2019-05-12T01:07:03.866Z,19.75
2019-05-12T01:09:34.923Z,20.43
2019-05-12T01:12:07.817Z,18.23
2019-05-12T01:14:38.470Z,18.25
2019-05-12T01:17:09.773Z,18.02
2019-05-12T01:19:40.809Z,17.77
2019-05-12T01:22:11.974Z,18.52
2019-05-12T01:24:43.265Z,18.07
2019-05-12T01:27:14.383Z,18.80
2019-05-12T01:29:47.900Z,16.57
2019-05-12T01:34:49.508Z,19.02
2019-05-12T01:37:21.895Z,16.50
2019-05-12T01:39:59.458Z,17.17
2019-05-12T01:42:28.857Z,16.85
2019-05-12T01:44:59.918Z,15.48
2019-05-12T01:47:30.957Z,15.70
2019-05-12T01:50:02.140Z,15.48
2019-05-12T01:52:33.028Z,15.68
2019-05-12T01:55:04.109Z,13.30
2019-05-12T01:57:35.516Z,13.22
2019-05-12T02:00:08.897Z,13.43
2019-05-12T02:02:39.974Z,12.65
2019-05-12T02:05:11.555Z,12.37
2019-05-12T02:07:43.771Z,11.35
2019-05-12T02:10:14.673Z,11.28
2019-05-12T02:12:45.919Z,12.03
2019-05-12T02:15:18.382Z,10.90
2019-05-12T02:17:49.493Z,10.60
2019-05-12T02:20:20.518Z,10.85
2019-05-12T02:22:51.463Z,10.95
2019-05-12T02:25:22.710Z,10.60
2019-05-12T02:27:54.266Z,10.10
2019-05-12T02:30:25.326Z,9.50
2019-05-12T02:32:59.037Z,8.78
2019-05-12T02:35:29.060Z,9.75
2019-05-12T02:38:00.486Z,9.63
2019-05-12T02:40:34.349Z,9.50
2019-05-12T02:43:05.741Z,10.23
2019-05-12T02:45:37.211Z,9.60
2019-05-12T02:48:08.225Z,10.53
2019-05-12T02:50:39.480Z,9.73
2019-05-12T02:53:10.380Z,10.43
2019-05-12T02:55:44.782Z,9.98
2019-05-12T02:58:15.568Z,9.40
2019-05-12T03:00:47.318Z,9.85
2019-05-12T03:03:18.444Z,9.58
2019-05-12T03:05:49.452Z,10.28
2019-05-12T03:08:20.590Z,10.25
2019-05-12T03:10:54.794Z,9.73
2019-05-12T03:13:25.561Z,10.68
2019-05-12T03:15:56.893Z,10.43
2019-05-12T03:18:27.871Z,9.78
2019-05-12T03:20:59.156Z,9.65
2019-05-12T03:23:30.167Z,10.30
2019-05-12T03:26:01.026Z,10.28
2019-05-12T03:28:35.258Z,10.40
2019-05-12T03:31:07.702Z,9.85
2019-05-12T03:33:43.430Z,9.08
2019-05-12T03:36:10.418Z,9.35
2019-05-12T03:38:44.726Z,9.48
2019-05-12T03:41:15.068Z,9.70
2019-05-12T03:43:46.922Z,11.20
2019-05-12T03:46:17.999Z,12.63
2019-05-12T03:48:49.110Z,15.80
2019-05-12T03:51:20.393Z,11.33
2019-05-12T03:53:54.755Z,9.87
2019-05-12T03:56:25.993Z,9.80
2019-05-12T03:58:56.526Z,10.18
2019-05-12T04:01:27.700Z,10.48
2019-05-12T04:03:58.969Z,9.77
2019-05-12T04:06:29.829Z,9.70
2019-05-12T04:09:00.770Z,9.93
2019-05-12T04:11:35.418Z,9.83
2019-05-12T04:14:05.465Z,12.45
2019-05-12T04:16:37.774Z,12.88
2019-05-12T04:21:38.925Z,10.72
2019-05-12T04:24:09.974Z,10.65
2019-05-12T04:26:41.116Z,10.13
2019-05-12T04:29:15.141Z,10.90
2019-05-12T04:31:46.105Z,10.55
2019-05-12T04:34:19.220Z,10.83
2019-05-12T04:36:49.315Z,9.93
2019-05-12T04:39:20.147Z,10.25
2019-05-12T04:41:51.219Z,10.48
2019-05-12T04:44:25.131Z,10.68
2019-05-12T04:46:55.582Z,10.55
2019-05-12T04:49:26.801Z,10.85
2019-05-12T04:51:57.630Z,11.33
2019-05-12T04:54:28.682Z,10.48
2019-05-12T04:56:59.937Z,11.03
2019-05-12T04:59:30.938Z,10.47
2019-05-12T05:02:05.148Z,10.72
2019-05-12T05:04:34.752Z,11.08
2019-05-12T05:07:05.727Z,10.13
2019-05-12T05:09:36.676Z,11.97
2019-05-12T05:12:08.143Z,14.03
2019-05-12T05:14:38.936Z,11.93
2019-05-12T05:17:09.905Z,10.78
2019-05-12T05:19:40.727Z,11.85
2019-05-12T05:22:13.717Z,11.63
2019-05-12T05:24:44.450Z,11.73
2019-05-12T05:27:15.653Z,11.70
2019-05-12T05:29:46.582Z,11.90
2019-05-12T05:32:17.486Z,11.10
2019-05-12T05:34:55.824Z,11.50
2019-05-12T05:37:20.530Z,11.00
2019-05-12T05:39:53.883Z,12.40
2019-05-12T05:42:30.718Z,12.10
2019-05-12T05:44:56.172Z,11.18
2019-05-12T05:47:28.625Z,11.50
2019-05-12T05:52:33.038Z,13.55
2019-05-12T05:55:05.736Z,15.10
2019-05-12T05:57:33.998Z,12.47
2019-05-12T06:00:07.130Z,17.92
2019-05-12T06:02:40.311Z,19.48
2019-05-12T06:05:10.429Z,17.45
2019-05-12T06:07:44.129Z,17.35
2019-05-12T06:10:14.583Z,16.10
2019-05-12T06:12:50.534Z,17.37
2019-05-12T06:15:17.952Z,15.48
2019-05-12T06:17:49.032Z,14.70
2019-05-12T06:20:20.208Z,15.93
2019-05-12T06:22:54.616Z,16.97
2019-05-12T06:25:26.496Z,15.60
2019-05-12T06:27:59.980Z,16.37
2019-05-12T06:30:28.320Z,14.58
2019-05-12T06:32:59.304Z,13.15
2019-05-12T06:35:30.851Z,12.80
2019-05-12T06:38:04.709Z,14.18
2019-05-12T06:40:40.797Z,12.95
2019-05-12T06:43:07.571Z,10.70
2019-05-12T06:45:42.459Z,11.73
2019-05-12T06:48:13.353Z,11.05
2019-05-12T06:50:44.244Z,11.10
2019-05-12T06:53:15.215Z,11.03
2019-05-12T06:55:46.341Z,10.48
2019-05-12T06:58:26.376Z,10.75
2019-05-12T07:00:49.378Z,10.20
2019-05-12T07:03:26.159Z,9.93
2019-05-12T07:05:53.378Z,10.55
2019-05-12T07:08:29.952Z,10.53
2019-05-12T07:11:01.792Z,10.53
2019-05-12T07:13:29.572Z,10.28
2019-05-12T07:16:03.597Z,9.63
2019-05-12T07:18:36.953Z,10.40
2019-05-12T07:21:09.358Z,9.48
2019-05-12T07:23:39.027Z,10.28
2019-05-12T07:26:14.181Z,10.53
2019-05-12T07:28:43.323Z,11.93
2019-05-12T07:31:14.822Z,10.68
2019-05-12T07:33:46.166Z,10.65
2019-05-12T07:36:17.356Z,10.03
2019-05-12T07:38:48.557Z,11.95
2019-05-12T07:41:20.426Z,10.53
2019-05-12T07:43:56.803Z,10.90
2019-05-12T07:46:27.821Z,10.93
2019-05-12T07:48:58.179Z,11.35
2019-05-12T07:51:30.275Z,11.08
2019-05-12T07:54:03.878Z,11.15
2019-05-12T07:56:35.821Z,10.48
2019-05-12T07:59:06.425Z,10.90
2019-05-12T08:01:48.213Z,11.28
2019-05-12T08:04:09.821Z,10.80
2019-05-12T08:06:44.562Z,12.28
2019-05-12T08:09:13.636Z,11.95
2019-05-12T08:11:45.681Z,11.73
2019-05-12T08:16:48.190Z,12.87
2019-05-12T08:19:23.861Z,11.83
2019-05-12T08:21:53.611Z,11.18
2019-05-12T08:24:24.423Z,10.65
2019-05-12T08:27:01.461Z,10.72
2019-05-12T08:29:27.851Z,10.70
2019-05-12T08:31:58.886Z,11.83
2019-05-12T08:34:30.429Z,11.78
2019-05-12T08:37:01.484Z,12.05
2019-05-12T08:39:33.744Z,11.15
2019-05-12T08:42:05.646Z,11.10
2019-05-12T08:44:40.721Z,11.43
2019-05-12T08:49:50.240Z,12.58
2019-05-12T08:52:11.521Z,11.88
2019-05-12T08:54:45.437Z,12.73
2019-05-12T08:57:15.341Z,12.35
2019-05-12T08:59:46.410Z,12.73
2019-05-12T09:02:17.158Z,12.35
2019-05-12T09:04:51.505Z,12.45
2019-05-12T09:07:20.383Z,12.85
2019-05-12T09:09:53.360Z,12.68
2019-05-12T09:12:24.331Z,12.95
2019-05-12T09:14:55.176Z,13.50
2019-05-12T09:17:26.366Z,13.80
2019-05-12T09:20:03.641Z,13.53
2019-05-12T09:22:29.912Z,13.45
2019-05-12T09:25:06.287Z,13.37
2019-05-12T09:27:33.449Z,13.40
2019-05-12T09:30:08.385Z,13.35
2019-05-12T09:32:39.093Z,12.53
2019-05-12T09:35:09.565Z,13.08
2019-05-12T09:37:40.783Z,13.22
2019-05-12T09:40:14.709Z,14.78
2019-05-12T09:42:44.387Z,13.00
2019-05-12T09:45:15.391Z,13.93
2019-05-12T09:47:46.478Z,14.38
2019-05-12T09:50:20.365Z,14.77
2019-05-12T09:52:52.762Z,13.55
2019-05-12T09:55:22.824Z,13.93
2019-05-12T09:57:54.398Z,12.15
2019-05-12T10:00:30.231Z,13.28
2019-05-12T10:03:00.712Z,12.82
2019-05-12T10:05:30.509Z,12.03
2019-05-12T10:08:04.426Z,11.63
2019-05-12T10:10:38.956Z,12.90
2019-05-12T10:13:06.799Z,12.25
2019-05-12T10:15:37.934Z,11.97
2019-05-12T10:18:11.186Z,12.37
2019-05-12T10:20:41.221Z,11.10
2019-05-12T10:23:18.252Z,11.73
2019-05-12T10:28:16.211Z,11.88
2019-05-12T10:30:52.625Z,10.98
2019-05-12T10:33:19.630Z,11.83
2019-05-12T10:35:50.851Z,11.43
2019-05-12T10:38:23.982Z,12.10
2019-05-12T10:40:54.583Z,11.50
2019-05-12T10:43:25.629Z,12.28
2019-05-12T10:45:56.755Z,11.33
2019-05-12T10:48:27.665Z,12.20
2019-05-12T10:50:58.787Z,12.60
2019-05-12T10:53:29.773Z,14.07
2019-05-12T10:56:00.882Z,18.12
2019-05-12T10:58:33.623Z,16.02
2019-05-12T11:01:07.439Z,13.25
2019-05-12T11:03:36.514Z,11.70
2019-05-12T11:06:07.853Z,11.22
2019-05-12T11:08:41.390Z,10.58
2019-05-12T11:11:13.474Z,10.95
2019-05-12T11:13:48.304Z,11.05
2019-05-12T11:18:46.724Z,14.07
2019-05-12T11:21:17.739Z,16.12
2019-05-12T11:23:48.502Z,20.25
2019-05-12T11:26:19.309Z,20.45
2019-05-12T11:28:50.392Z,22.32
2019-05-12T11:31:21.406Z,19.05
2019-05-12T11:33:54.071Z,16.73
2019-05-12T11:36:25.168Z,15.95
2019-05-12T11:38:56.027Z,15.40
2019-05-12T11:41:28.359Z,15.48
2019-05-12T11:43:59.267Z,15.30
2019-05-12T11:46:33.420Z,14.53
2019-05-12T11:49:04.273Z,14.78
2019-05-12T11:51:34.661Z,14.90
2019-05-12T11:54:09.080Z,14.68
2019-05-12T11:56:40.408Z,15.32
2019-05-12T11:59:10.139Z,15.08
2019-05-12T12:01:47.484Z,13.70
2019-05-12T12:04:14.348Z,15.25
2019-05-12T12:06:45.659Z,16.42
2019-05-12T12:09:18.892Z,19.17
2019-05-12T12:11:49.123Z,21.65
2019-05-12T12:14:20.367Z,23.83
2019-05-12T12:16:52.351Z,24.17
2019-05-12T12:19:26.049Z,23.00
2019-05-12T12:24:29.982Z,23.38
2019-05-12T12:26:59.257Z,22.75
2019-05-12T12:29:29.993Z,21.17
2019-05-12T12:32:00.810Z,22.90
2019-05-12T12:34:33.171Z,22.62
2019-05-12T12:37:04.184Z,21.15
2019-05-12T12:39:35.222Z,20.05
2019-05-12T12:42:06.551Z,20.50
2019-05-12T12:44:37.458Z,20.43
2019-05-12T12:47:08.438Z,18.55
2019-05-12T12:49:39.914Z,18.82
2019-05-12T12:52:13.640Z,19.30
2019-05-12T12:54:44.862Z,17.32
2019-05-12T12:57:18.915Z,17.27
2019-05-12T12:59:51.243Z,15.98
2019-05-12T13:02:20.832Z,15.95
2019-05-12T13:04:53.733Z,16.55
2019-05-12T13:07:24.378Z,15.25
2019-05-12T13:10:04.623Z,15.33
2019-05-12T13:12:27.543Z,15.93
2019-05-12T13:14:58.499Z,16.67
2019-05-12T13:17:35.320Z,17.23
2019-05-12T13:20:02.354Z,16.75
2019-05-12T13:22:33.715Z,16.12
2019-05-12T13:25:08.580Z,16.15
2019-05-12T13:27:37.187Z,16.35
2019-05-12T13:30:18.544Z,15.23
2019-05-12T13:32:44.184Z,16.42
2019-05-12T13:35:16.617Z,16.15
2019-05-12T13:37:50.394Z,15.75
2019-05-12T13:40:18.741Z,16.00
2019-05-12T13:42:49.697Z,15.70
2019-05-12T13:45:21.152Z,15.38
2019-05-12T13:47:53.403Z,16.80
2019-05-12T13:50:26.401Z,16.27
2019-05-12T13:53:01.259Z,15.80
2019-05-12T13:55:29.169Z,15.88
2019-05-12T13:58:00.238Z,16.00
2019-05-12T14:00:33.444Z,16.70
2019-05-12T14:03:08.192Z,17.65
2019-05-12T14:05:36.221Z,17.87
2019-05-12T14:08:07.251Z,18.80
2019-05-12T14:10:46.944Z,17.50
2019-05-12T14:13:10.692Z,17.62
2019-05-12T14:15:44.106Z,17.07
2019-05-12T14:18:19.246Z,17.75
2019-05-12T14:20:50.833Z,16.48
2019-05-12T14:23:20.808Z,16.42
2019-05-12T14:25:54.088Z,17.05
2019-05-12T14:28:24.187Z,15.53
2019-05-12T14:30:55.546Z,15.75
2019-05-12T14:33:29.754Z,15.53
2019-05-12T14:38:29.916Z,14.78
2019-05-12T14:41:01.192Z,14.98
2019-05-12T14:46:06.241Z,15.58
2019-05-12T14:48:40.143Z,15.28
2019-05-12T14:51:09.898Z,15.43
2019-05-12T14:53:40.949Z,15.25
2019-05-12T14:56:13.928Z,15.35
2019-05-12T14:58:45.049Z,14.55
2019-05-12T15:01:16.260Z,14.53
2019-05-12T15:03:49.292Z,15.70
2019-05-12T15:06:24.866Z,15.83
2019-05-12T15:08:54.135Z,15.28
2019-05-12T15:11:25.408Z,15.13
2019-05-12T15:13:57.865Z,15.00
2019-05-12T15:16:48.210Z,14.75
2019-05-12T15:19:20.785Z,15.23
2019-05-12T15:21:53.675Z,15.05
2019-05-12T15:24:24.667Z,14.43
2019-05-12T15:26:57.521Z,15.58
2019-05-12T15:29:28.486Z,16.45
2019-05-12T15:31:59.599Z,16.40
2019-05-12T15:34:30.887Z,15.08
2019-05-12T15:37:03.981Z,16.37
2019-05-12T15:42:04.955Z,14.07
2019-05-12T15:44:37.063Z,14.93
2019-05-12T15:49:37.667Z,14.65
2019-05-12T15:52:08.834Z,15.35
2019-05-12T15:54:45.869Z,15.88
2019-05-12T15:59:44.127Z,14.60
2019-05-12T16:02:17.047Z,14.85
2019-05-12T16:04:48.579Z,14.33
2019-05-12T16:07:20.107Z,13.62
2019-05-12T16:09:51.239Z,14.27
2019-05-12T16:12:24.322Z,13.32
2019-05-12T16:17:27.112Z,12.63
2019-05-12T16:19:57.459Z,12.88
2019-05-12T16:22:30.612Z,13.28
2019-05-12T16:25:01.209Z,12.15
2019-05-12T16:27:33.692Z,12.30
2019-05-12T16:30:04.938Z,11.43
2019-05-12T16:32:43.106Z,11.50
2019-05-12T16:35:08.807Z,12.25
2019-05-12T16:37:40.118Z,12.98
2019-05-12T16:40:13.418Z,12.70
2019-05-12T16:42:52.539Z,12.37
2019-05-12T16:45:19.972Z,13.10
